sensor_id;sensor_type;location;lat;lon;timestamp;pressure;altitude;pressure_sealevel;temperature;humidity
84136;BME280;74238;50.566;7.262;2023-12-20T00:00:59;100921.34;;;5.70;91.19
84136;BME280;74238;50.566;7.262;2023-12-20T00:03:25;100981.06;;;6.02;91.12
84136;BME280;74238;50.566;7.262;2023-12-20T00:05:50;100937.09;;;5.76;90.63
84136;BME280;74238;50.566;7.262;2023-12-20T00:08:16;100976.66;;;5.99;91.01
84136;BME280;74238;50.566;7.262;2023-12-20T00:10:41;100966.19;;;5.99;91.52
84136;BME280;74238;50.566;7.262;2023-12-20T00:13:07;100926.63;;;5.78;90.63
84136;BME280;74238;50.566;7.262;2023-12-20T00:15:33;100901.13;;;5.62;90.69
84136;BME280;74238;50.566;7.262;2023-12-20T00:17:58;100938.06;;;5.86;90.95
84136;BME280;74238;50.566;7.262;2023-12-20T00:20:24;100941.63;;;5.90;91.25
84136;BME280;74238;50.566;7.262;2023-12-20T00:22:49;100951.31;;;5.97;91.55
84136;BME280;74238;50.566;7.262;2023-12-20T00:25:14;100903.00;;;5.72;90.93
84136;BME280;74238;50.566;7.262;2023-12-20T00:27:40;100957.44;;;5.97;90.79
84136;BME280;74238;50.566;7.262;2023-12-20T00:30:05;100921.38;;;5.76;91.56
84136;BME280;74238;50.566;7.262;2023-12-20T00:32:31;100955.69;;;5.96;91.55
84136;BME280;74238;50.566;7.262;2023-12-20T00:34:57;100943.38;;;5.89;91.66
84136;BME280;74238;50.566;7.262;2023-12-20T00:37:22;100926.63;;;5.78;91.22
84136;BME280;74238;50.566;7.262;2023-12-20T00:39:49;100959.16;;;5.97;91.28
84136;BME280;74238;50.566;7.262;2023-12-20T00:42:14;100943.25;;;5.80;91.60
84136;BME280;74238;50.566;7.262;2023-12-20T00:44:39;100966.16;;;5.96;91.57
84136;BME280;74238;50.566;7.262;2023-12-20T00:47:05;100908.25;;;5.70;91.79
84136;BME280;74238;50.566;7.262;2023-12-20T00:49:30;100940.66;;;5.83;91.31
84136;BME280;74238;50.566;7.262;2023-12-20T00:51:55;100906.44;;;5.66;91.27
84136;BME280;74238;50.566;7.262;2023-12-20T00:54:21;100933.66;;;5.79;91.93
84136;BME280;74238;50.566;7.262;2023-12-20T00:56:46;100951.22;;;5.89;91.37
84136;BME280;74238;50.566;7.262;2023-12-20T00:59:12;100927.41;;;5.69;91.66
84136;BME280;74238;50.566;7.262;2023-12-20T01:01:37;100951.19;;;5.88;91.35
84136;BME280;74238;50.566;7.262;2023-12-20T01:04:03;100892.31;;;5.53;91.48
84136;BME280;74238;50.566;7.262;2023-12-20T01:06:29;100906.31;;;5.54;91.91
84136;BME280;74238;50.566;7.262;2023-12-20T01:08:54;100964.31;;;5.89;91.42
84136;BME280;74238;50.566;7.262;2023-12-20T01:11:19;100959.09;;;5.89;91.27
84136;BME280;74238;50.566;7.262;2023-12-20T01:13:44;100887.06;;;5.49;91.84
84136;BME280;74238;50.566;7.262;2023-12-20T01:16:11;100937.09;;;5.78;92.04
84136;BME280;74238;50.566;7.262;2023-12-20T01:18:37;100885.34;;;5.52;91.58
84136;BME280;74238;50.566;7.262;2023-12-20T01:21:02;100912.53;;;5.64;91.97
84136;BME280;74238;50.566;7.262;2023-12-20T01:23:28;100951.22;;;5.91;91.70
84136;BME280;74238;50.566;7.262;2023-12-20T01:25:54;100961.69;;;5.91;91.49
84136;BME280;74238;50.566;7.262;2023-12-20T01:28:19;100851.91;;;5.27;91.58
84136;BME280;74238;50.566;7.262;2023-12-20T01:30:45;100966.94;;;5.91;92.26
84136;BME280;74238;50.566;7.262;2023-12-20T01:33:10;100927.41;;;5.65;91.73
84136;BME280;74238;50.566;7.262;2023-12-20T01:35:35;100967.78;;;5.88;91.25
84136;BME280;74238;50.566;7.262;2023-12-20T01:38:01;100954.66;;;5.84;92.33
84136;BME280;74238;50.566;7.262;2023-12-20T01:40:26;100925.63;;;5.64;91.50
84136;BME280;74238;50.566;7.262;2023-12-20T01:43:04;100959.03;;;5.85;92.46
84136;BME280;74238;50.566;7.262;2023-12-20T01:45:30;100966.00;;;5.83;92.16
84136;BME280;74238;50.566;7.262;2023-12-20T01:47:56;100976.56;;;5.90;91.98
84136;BME280;74238;50.566;7.262;2023-12-20T01:50:22;100963.34;;;5.80;92.13
84136;BME280;74238;50.566;7.262;2023-12-20T01:52:48;100984.41;;;5.90;91.21
84136;BME280;74238;50.566;7.262;2023-12-20T01:55:18;100975.63;;;5.84;91.41
84136;BME280;74238;50.566;7.262;2023-12-20T01:57:44;100986.16;;;5.91;92.04
84136;BME280;74238;50.566;7.262;2023-12-20T02:00:11;100988.78;;;5.91;91.39
84136;BME280;74238;50.566;7.262;2023-12-20T02:02:39;100980.06;;;5.89;92.02
84136;BME280;74238;50.566;7.262;2023-12-20T02:05:05;100990.63;;;5.95;92.29
84136;BME280;74238;50.566;7.262;2023-12-20T02:07:31;100988.03;;;5.98;92.44
84136;BME280;74238;50.566;7.262;2023-12-20T02:09:56;100965.94;;;5.78;91.62
84136;BME280;74238;50.566;7.262;2023-12-20T02:12:21;101002.03;;;6.02;92.51
84136;BME280;74238;50.566;7.262;2023-12-20T02:14:47;100995.91;;;6.00;91.70
84136;BME280;74238;50.566;7.262;2023-12-20T02:17:13;100996.78;;;6.02;91.47
84136;BME280;74238;50.566;7.262;2023-12-20T02:19:38;100997.69;;;6.03;92.33
84136;BME280;74238;50.566;7.262;2023-12-20T02:22:08;100948.50;;;5.80;92.14
84136;BME280;74238;50.566;7.262;2023-12-20T02:24:34;100990.72;;;6.08;92.44
84136;BME280;74238;50.566;7.262;2023-12-20T02:26:59;100971.38;;;5.93;91.55
84136;BME280;74238;50.566;7.262;2023-12-20T02:29:24;100989.84;;;6.07;91.72
84136;BME280;74238;50.566;7.262;2023-12-20T02:31:50;100986.41;;;6.08;92.10
84136;BME280;74238;50.566;7.262;2023-12-20T02:34:16;100974.09;;;6.04;91.87
84136;BME280;74238;50.566;7.262;2023-12-20T02:36:41;101011.91;;;6.29;91.12
84136;BME280;74238;50.566;7.262;2023-12-20T02:39:06;101021.59;;;6.33;91.18
84136;BME280;74238;50.566;7.262;2023-12-20T02:41:32;101029.50;;;6.39;90.14
84136;BME280;74238;50.566;7.262;2023-12-20T02:43:57;100999.63;;;6.22;88.62
84136;BME280;74238;50.566;7.262;2023-12-20T02:46:23;101042.63;;;6.42;88.25
84136;BME280;74238;50.566;7.262;2023-12-20T02:48:48;101037.34;;;6.36;88.04
84136;BME280;74238;50.566;7.262;2023-12-20T02:51:13;100993.25;;;5.95;86.82
84136;BME280;74238;50.566;7.262;2023-12-20T02:53:38;100980.75;;;5.74;86.84
84136;BME280;74238;50.566;7.262;2023-12-20T02:56:04;101016.66;;;5.83;86.61
84136;BME280;74238;50.566;7.262;2023-12-20T02:58:29;101042.00;;;5.84;85.78
84136;BME280;74238;50.566;7.262;2023-12-20T03:00:55;101034.84;;;5.71;86.28
84136;BME280;74238;50.566;7.262;2023-12-20T03:03:20;101020.75;;;5.60;86.19
84136;BME280;74238;50.566;7.262;2023-12-20T03:05:45;101076.88;;;5.78;87.19
84136;BME280;74238;50.566;7.262;2023-12-20T03:08:11;101045.06;;;5.51;86.81
84136;BME280;74238;50.566;7.262;2023-12-20T03:10:37;101081.94;;;5.66;86.98
84136;BME280;74238;50.566;7.262;2023-12-20T03:13:02;101087.09;;;5.60;85.86
84136;BME280;74238;50.566;7.262;2023-12-20T03:15:27;101086.97;;;5.51;86.43
84136;BME280;74238;50.566;7.262;2023-12-20T03:17:53;101085.22;;;5.50;86.45
84136;BME280;74238;50.566;7.262;2023-12-20T03:20:18;101077.25;;;5.42;87.42
84136;BME280;74238;50.566;7.262;2023-12-20T03:22:43;101048.22;;;5.25;87.66
84136;BME280;74238;50.566;7.262;2023-12-20T03:25:09;101075.41;;;5.37;87.70
84136;BME280;74238;50.566;7.262;2023-12-20T03:27:37;101066.63;;;5.30;87.80
84136;BME280;74238;50.566;7.262;2023-12-20T03:30:03;101045.34;;;5.08;87.50
84136;BME280;74238;50.566;7.262;2023-12-20T03:32:29;101033.81;;;4.94;87.01
84136;BME280;74238;50.566;7.262;2023-12-20T03:34:54;101077.81;;;5.20;86.74
84136;BME280;74238;50.566;7.262;2023-12-20T03:37:19;101070.78;;;5.17;86.77
84136;BME280;74238;50.566;7.262;2023-12-20T03:39:45;101056.63;;;5.04;88.15
84136;BME280;74238;50.566;7.262;2023-12-20T03:42:10;101075.19;;;5.20;87.66
84136;BME280;74238;50.566;7.262;2023-12-20T03:44:38;101076.09;;;5.22;86.67
84136;BME280;74238;50.566;7.262;2023-12-20T03:47:03;101080.47;;;5.23;87.88
84136;BME280;74238;50.566;7.262;2023-12-20T03:49:29;101055.91;;;5.15;87.40
84136;BME280;74238;50.566;7.262;2023-12-20T03:51:54;101078.75;;;5.26;87.70
84136;BME280;74238;50.566;7.262;2023-12-20T03:54:22;101066.47;;;5.19;86.63
84136;BME280;74238;50.566;7.262;2023-12-20T03:56:48;101073.59;;;5.29;86.79
84136;BME280;74238;50.566;7.262;2023-12-20T03:59:13;101026.97;;;5.02;87.14
84136;BME280;74238;50.566;7.262;2023-12-20T04:01:43;101043.69;;;5.14;86.63
84136;BME280;74238;50.566;7.262;2023-12-20T04:04:08;101071.84;;;5.30;86.45
84136;BME280;74238;50.566;7.262;2023-12-20T04:06:33;101073.59;;;5.31;86.35
84136;BME280;74238;50.566;7.262;2023-12-20T04:08:59;101067.50;;;5.30;86.63
84136;BME280;74238;50.566;7.262;2023-12-20T04:11:25;101073.59;;;5.31;86.33
84136;BME280;74238;50.566;7.262;2023-12-20T04:13:50;101067.53;;;5.32;87.23
84136;BME280;74238;50.566;7.262;2023-12-20T04:16:15;101066.66;;;5.33;87.41
84136;BME280;74238;50.566;7.262;2023-12-20T04:18:41;101068.41;;;5.34;87.37
84136;BME280;74238;50.566;7.262;2023-12-20T04:21:06;101066.66;;;5.33;86.21
84136;BME280;74238;50.566;7.262;2023-12-20T04:23:32;101035.72;;;5.07;86.65
84136;BME280;74238;50.566;7.262;2023-12-20T04:25:57;101069.16;;;5.24;87.11
84136;BME280;74238;50.566;7.262;2023-12-20T04:28:22;101082.38;;;5.34;86.95
84136;BME280;74238;50.566;7.262;2023-12-20T04:30:48;101006.78;;;4.95;86.76
84136;BME280;74238;50.566;7.262;2023-12-20T04:33:13;100997.06;;;4.88;86.93
84136;BME280;74238;50.566;7.262;2023-12-20T04:35:39;101020.94;;;5.09;86.55
84136;BME280;74238;50.566;7.262;2023-12-20T04:38:05;101079.78;;;5.36;87.35
84136;BME280;74238;50.566;7.262;2023-12-20T04:40:31;101086.78;;;5.37;86.80
84136;BME280;74238;50.566;7.262;2023-12-20T04:42:56;101085.06;;;5.39;86.28
84136;BME280;74238;50.566;7.262;2023-12-20T04:45:21;101084.22;;;5.40;87.13
84136;BME280;74238;50.566;7.262;2023-12-20T04:47:48;101087.72;;;5.42;86.35
84136;BME280;74238;50.566;7.262;2023-12-20T04:50:14;101079.00;;;5.40;86.62
84136;BME280;74238;50.566;7.262;2023-12-20T04:52:39;101084.25;;;5.43;86.63
84136;BME280;74238;50.566;7.262;2023-12-20T04:55:05;101082.53;;;5.44;85.81
84136;BME280;74238;50.566;7.262;2023-12-20T04:57:30;101046.44;;;5.21;85.95
84136;BME280;74238;50.566;7.262;2023-12-20T04:59:56;101084.31;;;5.46;85.47
84136;BME280;74238;50.566;7.262;2023-12-20T05:02:21;101033.22;;;5.15;85.73
84136;BME280;74238;50.566;7.262;2023-12-20T05:04:46;101037.63;;;5.18;85.64
84136;BME280;74238;50.566;7.262;2023-12-20T05:07:11;101046.44;;;5.23;85.77
84136;BME280;74238;50.566;7.262;2023-12-20T05:09:37;101090.38;;;5.44;86.72
84136;BME280;74238;50.566;7.262;2023-12-20T05:12:02;101085.97;;;5.41;85.78
84136;BME280;74238;50.566;7.262;2023-12-20T05:14:29;101038.41;;;5.10;86.52
84136;BME280;74238;50.566;7.262;2023-12-20T05:16:54;101092.88;;;5.36;86.40
84136;BME280;74238;50.566;7.262;2023-12-20T05:19:20;101088.47;;;5.33;86.76
84136;BME280;74238;50.566;7.262;2023-12-20T05:21:45;101088.47;;;5.33;86.16
84136;BME280;74238;50.566;7.262;2023-12-20T05:24:10;101045.34;;;5.08;86.63
84136;BME280;74238;50.566;7.262;2023-12-20T05:26:35;101049.75;;;5.13;86.76
84136;BME280;74238;50.566;7.262;2023-12-20T05:29:01;101086.72;;;5.34;86.49
84136;BME280;74238;50.566;7.262;2023-12-20T05:31:26;101048.06;;;5.13;85.96
84136;BME280;74238;50.566;7.262;2023-12-20T05:33:52;101064.78;;;5.26;86.72
84136;BME280;74238;50.566;7.262;2023-12-20T05:36:18;101033.16;;;5.09;86.77
84136;BME280;74238;50.566;7.262;2023-12-20T05:38:43;101082.38;;;5.33;85.83
84136;BME280;74238;50.566;7.262;2023-12-20T05:41:08;101081.50;;;5.34;86.91
84136;BME280;74238;50.566;7.262;2023-12-20T05:43:34;101057.66;;;5.16;86.36
84136;BME280;74238;50.566;7.262;2023-12-20T05:45:59;101089.47;;;5.40;87.03
84136;BME280;74238;50.566;7.262;2023-12-20T05:48:24;101079.75;;;5.34;86.09
84136;BME280;74238;50.566;7.262;2023-12-20T05:50:50;101091.13;;;5.35;85.88
84136;BME280;74238;50.566;7.262;2023-12-20T05:53:15;101085.94;;;5.38;86.10
84136;BME280;74238;50.566;7.262;2023-12-20T05:55:40;101058.47;;;5.11;86.20
84136;BME280;74238;50.566;7.262;2023-12-20T05:58:06;101097.25;;;5.36;86.78
84136;BME280;74238;50.566;7.262;2023-12-20T06:00:31;101073.44;;;5.20;86.95
84136;BME280;74238;50.566;7.262;2023-12-20T06:02:56;101081.34;;;5.23;86.08
84136;BME280;74238;50.566;7.262;2023-12-20T06:05:21;101030.31;;;4.95;85.88
84136;BME280;74238;50.566;7.262;2023-12-20T06:07:47;101081.38;;;5.25;86.40
84136;BME280;74238;50.566;7.262;2023-12-20T06:10:13;101087.56;;;5.30;86.82
84136;BME280;74238;50.566;7.262;2023-12-20T06:12:39;101080.50;;;5.26;85.63
84136;BME280;74238;50.566;7.262;2023-12-20T06:15:05;101052.34;;;5.09;85.79
84136;BME280;74238;50.566;7.262;2023-12-20T06:17:31;101057.66;;;5.16;86.27
84136;BME280;74238;50.566;7.262;2023-12-20T06:19:56;101072.44;;;5.12;86.00
84136;BME280;74238;50.566;7.262;2023-12-20T06:22:22;101094.53;;;5.31;86.24
84136;BME280;74238;50.566;7.262;2023-12-20T06:24:47;101076.84;;;5.13;86.01
84136;BME280;74238;50.566;7.262;2023-12-20T06:27:13;101060.03;;;4.99;85.40
84136;BME280;74238;50.566;7.262;2023-12-20T06:29:38;101082.09;;;5.15;85.74
84136;BME280;74238;50.566;7.262;2023-12-20T06:32:04;101056.53;;;4.97;86.04
84136;BME280;74238;50.566;7.262;2023-12-20T06:34:29;101096.22;;;5.26;85.91
84136;BME280;74238;50.566;7.262;2023-12-20T06:36:54;101052.16;;;4.97;85.64
84136;BME280;74238;50.566;7.262;2023-12-20T06:39:20;101084.75;;;5.16;85.40
84136;BME280;74238;50.566;7.262;2023-12-20T06:41:45;101063.44;;;4.93;85.27
84136;BME280;74238;50.566;7.262;2023-12-20T06:44:10;101112.69;;;5.19;84.89
84136;BME280;74238;50.566;7.262;2023-12-20T06:46:36;101046.63;;;4.79;85.45
84136;BME280;74238;50.566;7.262;2023-12-20T06:49:01;101109.00;;;5.06;85.23
84136;BME280;74238;50.566;7.262;2023-12-20T06:51:26;101059.69;;;4.77;85.06
84136;BME280;74238;50.566;7.262;2023-12-20T06:53:52;101112.66;;;5.17;84.78
84136;BME280;74238;50.566;7.262;2023-12-20T06:56:17;101117.94;;;5.20;84.91
84136;BME280;74238;50.566;7.262;2023-12-20T06:58:43;101067.88;;;4.97;85.02
84136;BME280;74238;50.566;7.262;2023-12-20T07:01:15;101094.25;;;5.13;85.09
84136;BME280;74238;50.566;7.262;2023-12-20T07:03:40;101109.28;;;5.24;85.27
84136;BME280;74238;50.566;7.262;2023-12-20T07:06:06;101058.19;;;4.93;85.79
84136;BME280;74238;50.566;7.262;2023-12-20T07:08:32;101088.16;;;5.12;84.81
84136;BME280;74238;50.566;7.262;2023-12-20T07:10:57;101117.16;;;5.26;85.58
84136;BME280;74238;50.566;7.262;2023-12-20T07:13:23;101122.41;;;5.27;84.93
84136;BME280;74238;50.566;7.262;2023-12-20T07:15:48;101105.69;;;5.16;85.04
84136;BME280;74238;50.566;7.262;2023-12-20T07:18:14;101116.28;;;5.25;85.11
84136;BME280;74238;50.566;7.262;2023-12-20T07:20:39;101118.09;;;5.29;84.98
84136;BME280;74238;50.566;7.262;2023-12-20T07:23:04;101117.19;;;5.29;85.28
84136;BME280;74238;50.566;7.262;2023-12-20T07:25:30;101097.78;;;5.15;84.68
84136;BME280;74238;50.566;7.262;2023-12-20T07:27:58;101083.75;;;5.09;84.97
84136;BME280;74238;50.566;7.262;2023-12-20T07:30:23;101097.03;;;5.23;84.54
84136;BME280;74238;50.566;7.262;2023-12-20T07:32:48;101119.00;;;5.33;85.17
84136;BME280;74238;50.566;7.262;2023-12-20T07:35:15;101125.16;;;5.37;85.37
84136;BME280;74238;50.566;7.262;2023-12-20T07:37:40;101127.78;;;5.37;84.75
84136;BME280;74238;50.566;7.262;2023-12-20T07:40:06;101126.03;;;5.37;85.00
84136;BME280;74238;50.566;7.262;2023-12-20T07:42:31;101131.31;;;5.39;85.63
84136;BME280;74238;50.566;7.262;2023-12-20T07:44:58;101121.63;;;5.33;84.30
84136;BME280;74238;50.566;7.262;2023-12-20T07:47:23;101130.47;;;5.41;85.49
84136;BME280;74238;50.566;7.262;2023-12-20T07:49:50;101133.94;;;5.39;85.46
84136;BME280;74238;50.566;7.262;2023-12-20T07:52:19;101133.91;;;5.37;84.40
84136;BME280;74238;50.566;7.262;2023-12-20T07:54:47;101137.38;;;5.36;85.27
84136;BME280;74238;50.566;7.262;2023-12-20T07:57:12;101053.78;;;4.91;85.05
84136;BME280;74238;50.566;7.262;2023-12-20T07:59:37;101112.75;;;5.23;85.55
84136;BME280;74238;50.566;7.262;2023-12-20T08:02:03;101126.00;;;5.34;84.91
84136;BME280;74238;50.566;7.262;2023-12-20T08:04:28;101112.69;;;5.20;85.13
84136;BME280;74238;50.566;7.262;2023-12-20T08:06:54;101135.63;;;5.35;85.24
84136;BME280;74238;50.566;7.262;2023-12-20T08:09:19;101140.00;;;5.36;85.01
84136;BME280;74238;50.566;7.262;2023-12-20T08:11:48;101143.53;;;5.40;85.91
84136;BME280;74238;50.566;7.262;2023-12-20T08:14:14;101107.50;;;5.23;85.11
84136;BME280;74238;50.566;7.262;2023-12-20T08:16:39;101123.41;;;5.36;85.55
84136;BME280;74238;50.566;7.262;2023-12-20T08:19:05;101142.81;;;5.48;84.97
84136;BME280;74238;50.566;7.262;2023-12-20T08:21:30;101134.06;;;5.48;84.56
84136;BME280;74238;50.566;7.262;2023-12-20T08:23:55;101124.41;;;5.45;85.07
84136;BME280;74238;50.566;7.262;2023-12-20T08:26:21;101151.72;;;5.60;85.29
84136;BME280;74238;50.566;7.262;2023-12-20T08:28:50;101154.38;;;5.63;84.29
84136;BME280;74238;50.566;7.262;2023-12-20T08:31:16;101156.13;;;5.64;84.27
84136;BME280;74238;50.566;7.262;2023-12-20T08:33:46;101099.84;;;5.37;84.38
84136;BME280;74238;50.566;7.262;2023-12-20T08:36:12;101124.56;;;5.54;84.37
84136;BME280;74238;50.566;7.262;2023-12-20T08:38:37;101115.72;;;5.46;84.01
84136;BME280;74238;50.566;7.262;2023-12-20T08:41:03;101107.88;;;5.48;83.59
84136;BME280;74238;50.566;7.262;2023-12-20T08:43:39;101132.59;;;5.67;83.18
84136;BME280;74238;50.566;7.262;2023-12-20T08:46:05;101151.97;;;5.80;82.85
84136;BME280;74238;50.566;7.262;2023-12-20T08:48:30;101119.50;;;5.67;84.00
84136;BME280;74238;50.566;7.262;2023-12-20T08:50:56;101137.22;;;5.85;82.83
84136;BME280;74238;50.566;7.262;2023-12-20T08:53:21;100986.88;;;5.05;82.61
84136;BME280;74238;50.566;7.262;2023-12-20T08:55:47;101089.81;;;5.66;82.78
84136;BME280;74238;50.566;7.262;2023-12-20T08:58:13;101130.41;;;5.96;82.78
84136;BME280;74238;50.566;7.262;2023-12-20T09:00:39;101064.47;;;5.65;82.29
84136;BME280;74238;50.566;7.262;2023-12-20T09:03:04;101115.44;;;5.90;82.48
84136;BME280;74238;50.566;7.262;2023-12-20T09:05:30;101127.84;;;6.02;82.76
84136;BME280;74238;50.566;7.262;2023-12-20T09:07:55;101114.78;;;6.04;81.60
84136;BME280;74238;50.566;7.262;2023-12-20T09:10:21;101113.91;;;6.03;81.96
84136;BME280;74238;50.566;7.262;2023-12-20T09:12:52;101108.63;;;6.02;81.50
84136;BME280;74238;50.566;7.262;2023-12-20T09:15:26;101121.91;;;6.14;81.69
84136;BME280;74238;50.566;7.262;2023-12-20T09:17:52;101089.34;;;5.96;81.79
84136;BME280;74238;50.566;7.262;2023-12-20T09:20:17;101116.66;;;6.14;80.88
84136;BME280;74238;50.566;7.262;2023-12-20T09:22:43;101085.91;;;6.01;81.07
84136;BME280;74238;50.566;7.262;2023-12-20T09:25:09;101129.03;;;6.27;80.23
84136;BME280;74238;50.566;7.262;2023-12-20T09:27:36;101127.31;;;6.32;80.01
84136;BME280;74238;50.566;7.262;2023-12-20T09:30:01;101130.88;;;6.37;79.47
84136;BME280;74238;50.566;7.262;2023-12-20T09:32:27;101116.06;;;6.38;79.22
84136;BME280;74238;50.566;7.262;2023-12-20T09:34:52;101111.66;;;6.35;79.41
84136;BME280;74238;50.566;7.262;2023-12-20T09:37:17;101094.97;;;6.27;79.15
84136;BME280;74238;50.566;7.262;2023-12-20T09:39:43;101126.63;;;6.49;78.87
84136;BME280;74238;50.566;7.262;2023-12-20T09:42:11;101128.41;;;6.50;78.60
84136;BME280;74238;50.566;7.262;2023-12-20T09:44:37;101135.47;;;6.55;78.50
84136;BME280;74238;50.566;7.262;2023-12-20T09:47:06;101135.53;;;6.63;77.52
84136;BME280;74238;50.566;7.262;2023-12-20T09:49:32;101067.09;;;6.38;75.65
84136;BME280;74238;50.566;7.262;2023-12-20T09:51:59;101132.09;;;6.70;76.99
84136;BME280;74238;50.566;7.262;2023-12-20T09:54:26;101121.69;;;6.76;77.15
84136;BME280;74238;50.566;7.262;2023-12-20T09:56:53;101112.00;;;6.72;77.90
84136;BME280;74238;50.566;7.262;2023-12-20T09:59:19;101119.09;;;6.82;77.71
84136;BME280;74238;50.566;7.262;2023-12-20T10:01:44;101122.63;;;6.86;77.76
84136;BME280;74238;50.566;7.262;2023-12-20T10:04:12;101061.16;;;6.58;77.03
84136;BME280;74238;50.566;7.262;2023-12-20T10:06:39;101117.44;;;6.92;76.81
84136;BME280;74238;50.566;7.262;2023-12-20T10:09:04;101127.94;;;6.94;77.02
84136;BME280;74238;50.566;7.262;2023-12-20T10:11:30;101123.56;;;6.94;77.27
84136;BME280;74238;50.566;7.262;2023-12-20T10:13:59;101104.28;;;6.87;77.59
84136;BME280;74238;50.566;7.262;2023-12-20T10:16:28;101061.19;;;6.64;77.14
84136;BME280;74238;50.566;7.262;2023-12-20T10:18:54;101109.59;;;6.97;76.80
84136;BME280;74238;50.566;7.262;2023-12-20T10:21:20;101100.78;;;6.88;76.40
84136;BME280;74238;50.566;7.262;2023-12-20T10:23:46;101100.88;;;6.98;77.04
84136;BME280;74238;50.566;7.262;2023-12-20T10:26:22;101114.88;;;7.01;77.12
84136;BME280;74238;50.566;7.262;2023-12-20T10:28:55;101093.78;;;6.89;77.04
84136;BME280;74238;50.566;7.262;2023-12-20T10:31:31;101112.25;;;7.00;76.38
84136;BME280;74238;50.566;7.262;2023-12-20T10:33:58;101096.47;;;6.92;76.47
84136;BME280;74238;50.566;7.262;2023-12-20T10:36:29;101096.50;;;7.00;76.64
84136;BME280;74238;50.566;7.262;2023-12-20T10:38:56;101077.13;;;6.85;76.88
84136;BME280;74238;50.566;7.262;2023-12-20T10:41:32;101064.81;;;6.78;76.97
84136;BME280;74238;50.566;7.262;2023-12-20T10:44:02;101086.84;;;6.97;76.90
84136;BME280;74238;50.566;7.262;2023-12-20T10:46:28;101098.22;;;6.96;76.63
84136;BME280;74238;50.566;7.262;2023-12-20T10:48:56;101099.06;;;6.94;76.43
84136;BME280;74238;50.566;7.262;2023-12-20T10:51:22;101088.56;;;6.92;77.13
84136;BME280;74238;50.566;7.262;2023-12-20T10:53:49;101080.69;;;6.92;76.65
84136;BME280;74238;50.566;7.262;2023-12-20T10:56:16;101085.06;;;6.93;76.68
84136;BME280;74238;50.566;7.262;2023-12-20T10:58:43;101082.44;;;6.95;77.03
84136;BME280;74238;50.566;7.262;2023-12-20T11:01:12;101073.69;;;6.90;76.29
84136;BME280;74238;50.566;7.262;2023-12-20T11:03:38;101050.00;;;6.83;76.34
84136;BME280;74238;50.566;7.262;2023-12-20T11:09:24;101071.13;;;7.02;76.23
84136;BME280;74238;50.566;7.262;2023-12-20T11:14:31;101069.41;;;7.05;76.33
84136;BME280;74238;50.566;7.262;2023-12-20T11:17:10;101061.56;;;7.08;76.36
84136;BME280;74238;50.566;7.262;2023-12-20T11:22:25;101058.94;;;7.10;75.89
84136;BME280;74238;50.566;7.262;2023-12-20T11:24:51;101048.38;;;7.02;75.59
84136;BME280;74238;50.566;7.262;2023-12-20T11:27:18;101061.59;;;7.13;75.73
84136;BME280;74238;50.566;7.262;2023-12-20T11:29:51;101067.72;;;7.14;76.00
84136;BME280;74238;50.566;7.262;2023-12-20T11:34:54;101055.47;;;7.13;75.77
84136;BME280;74238;50.566;7.262;2023-12-20T11:37:20;101065.09;;;7.14;75.86
84136;BME280;74238;50.566;7.262;2023-12-20T11:39:56;101029.94;;;6.92;75.52
84136;BME280;74238;50.566;7.262;2023-12-20T11:42:21;101064.22;;;7.15;76.46
84136;BME280;74238;50.566;7.262;2023-12-20T11:44:47;101069.47;;;7.16;76.50
84136;BME280;74238;50.566;7.262;2023-12-20T11:47:13;101070.38;;;7.18;76.42
84136;BME280;74238;50.566;7.262;2023-12-20T11:49:39;101063.34;;;7.16;76.40
84136;BME280;74238;50.566;7.262;2023-12-20T11:52:05;101062.50;;;7.18;76.27
84136;BME280;74238;50.566;7.262;2023-12-20T11:54:31;101066.91;;;7.22;75.85
84136;BME280;74238;50.566;7.262;2023-12-20T11:56:56;101072.16;;;7.22;76.21
84136;BME280;74238;50.566;7.262;2023-12-20T11:59:21;101031.78;;;7.03;76.35
84136;BME280;74238;50.566;7.262;2023-12-20T12:01:53;101051.13;;;7.21;76.16
84136;BME280;74238;50.566;7.262;2023-12-20T12:04:21;101046.78;;;7.20;75.80
84136;BME280;74238;50.566;7.262;2023-12-20T12:06:46;101028.34;;;7.12;75.61
84136;BME280;74238;50.566;7.262;2023-12-20T12:09:12;101043.22;;;7.19;75.74
84136;BME280;74238;50.566;7.262;2023-12-20T12:11:37;101035.34;;;7.19;75.29
84136;BME280;74238;50.566;7.262;2023-12-20T12:14:03;101037.13;;;7.20;75.26
84136;BME280;74238;50.566;7.262;2023-12-20T12:16:29;100989.69;;;6.90;76.19
84136;BME280;74238;50.566;7.262;2023-12-20T12:18:58;101038.88;;;7.21;75.90
84136;BME280;74238;50.566;7.262;2023-12-20T12:21:24;101009.91;;;7.06;76.21
84136;BME280;74238;50.566;7.262;2023-12-20T12:23:49;101039.72;;;7.16;76.23
84136;BME280;74238;50.566;7.262;2023-12-20T12:26:14;101039.75;;;7.20;76.09
84136;BME280;74238;50.566;7.262;2023-12-20T12:28:40;100990.56;;;6.90;75.67
84136;BME280;74238;50.566;7.262;2023-12-20T12:31:07;101022.22;;;7.12;76.27
84136;BME280;74238;50.566;7.262;2023-12-20T12:33:32;100986.22;;;6.95;76.32
84136;BME280;74238;50.566;7.262;2023-12-20T12:35:58;101027.50;;;7.24;75.99
84136;BME280;74238;50.566;7.262;2023-12-20T12:38:24;101028.38;;;7.24;76.08
84136;BME280;74238;50.566;7.262;2023-12-20T12:40:50;101017.88;;;7.24;75.98
84136;BME280;74238;50.566;7.262;2023-12-20T12:43:15;101020.56;;;7.27;76.69
84136;BME280;74238;50.566;7.262;2023-12-20T12:45:41;101010.94;;;7.31;76.69
84136;BME280;74238;50.566;7.262;2023-12-20T12:48:06;101004.81;;;7.33;76.78
84136;BME280;74238;50.566;7.262;2023-12-20T12:50:32;100960.91;;;7.11;76.54
84136;BME280;74238;50.566;7.262;2023-12-20T12:52:57;101012.72;;;7.40;76.70
84136;BME280;74238;50.566;7.262;2023-12-20T12:55:23;100954.84;;;7.21;77.00
84136;BME280;74238;50.566;7.262;2023-12-20T12:57:48;101007.50;;;7.47;77.38
84136;BME280;74238;50.566;7.262;2023-12-20T13:00:14;100989.06;;;7.38;76.88
84136;BME280;74238;50.566;7.262;2023-12-20T13:02:39;101002.25;;;7.41;77.30
84136;BME280;74238;50.566;7.262;2023-12-20T13:05:08;101000.47;;;7.42;77.23